sensor_id;sensor_type;location;lat;lon;timestamp;temperature;humidity
68177;DHT22;56478;50.982;7.032;2023-02-24T00:01:36;8.80;85.75
68177;DHT22;56478;50.982;7.032;2023-02-24T00:04:03;8.83;85.84
68177;DHT22;56478;50.982;7.032;2023-02-24T00:06:32;8.85;84.76
68177;DHT22;56478;50.982;7.032;2023-02-24T00:09:13;8.80;84.47
68177;DHT22;56478;50.982;7.032;2023-02-24T00:12:07;8.76;84.77
68177;DHT22;56478;50.982;7.032;2023-02-24T00:14:38;8.72;84.52
68177;DHT22;56478;50.982;7.032;2023-02-24T00:17:06;8.66;84.22
68177;DHT22;56478;50.982;7.032;2023-02-24T00:19:35;8.67;84.09
68177;DHT22;56478;50.982;7.032;2023-02-24T00:22:02;8.66;83.95
68177;DHT22;56478;50.982;7.032;2023-02-24T00:24:29;8.60;84.00
68177;DHT22;56478;50.982;7.032;2023-02-24T00:26:57;8.59;83.57
68177;DHT22;56478;50.982;7.032;2023-02-24T00:29:24;8.55;83.55
68177;DHT22;56478;50.982;7.032;2023-02-24T00:31:54;8.41;83.69
68177;DHT22;56478;50.982;7.032;2023-02-24T00:34:32;8.52;83.21
68177;DHT22;56478;50.982;7.032;2023-02-24T00:36:58;8.52;82.82
68177;DHT22;56478;50.982;7.032;2023-02-24T00:39:24;8.45;82.48
68177;DHT22;56478;50.982;7.032;2023-02-24T00:41:55;8.32;82.90
68177;DHT22;56478;50.982;7.032;2023-02-24T00:44:29;8.24;82.83
68177;DHT22;56478;50.982;7.032;2023-02-24T00:46:57;8.20;83.58
68177;DHT22;56478;50.982;7.032;2023-02-24T00:49:24;8.20;82.91
68177;DHT22;56478;50.982;7.032;2023-02-24T00:51:50;8.10;83.10
68177;DHT22;56478;50.982;7.032;2023-02-24T00:54:18;8.07;83.21
68177;DHT22;56478;50.982;7.032;2023-02-24T00:56:46;8.08;83.39
68177;DHT22;56478;50.982;7.032;2023-02-24T00:59:14;8.14;83.19
68177;DHT22;56478;50.982;7.032;2023-02-24T01:01:40;8.14;83.05
68177;DHT22;56478;50.982;7.032;2023-02-24T01:04:06;8.07;83.61
68177;DHT22;56478;50.982;7.032;2023-02-24T01:06:40;8.04;83.86
68177;DHT22;56478;50.982;7.032;2023-02-24T01:09:13;8.10;83.77
68177;DHT22;56478;50.982;7.032;2023-02-24T01:11:39;8.05;83.97
68177;DHT22;56478;50.982;7.032;2023-02-24T01:14:26;8.08;83.56
68177;DHT22;56478;50.982;7.032;2023-02-24T01:16:53;8.08;83.19
68177;DHT22;56478;50.982;7.032;2023-02-24T01:19:22;8.03;82.60
68177;DHT22;56478;50.982;7.032;2023-02-24T01:21:47;7.94;83.27
68177;DHT22;56478;50.982;7.032;2023-02-24T01:24:24;7.93;83.05
68177;DHT22;56478;50.982;7.032;2023-02-24T01:26:50;7.93;83.12
68177;DHT22;56478;50.982;7.032;2023-02-24T01:29:16;7.87;82.64
68177;DHT22;56478;50.982;7.032;2023-02-24T01:31:41;7.90;83.21
68177;DHT22;56478;50.982;7.032;2023-02-24T01:34:11;7.87;83.35
68177;DHT22;56478;50.982;7.032;2023-02-24T01:36:38;7.83;83.49
68177;DHT22;56478;50.982;7.032;2023-02-24T01:39:05;7.85;83.37
68177;DHT22;56478;50.982;7.032;2023-02-24T01:41:47;7.90;83.76
68177;DHT22;56478;50.982;7.032;2023-02-24T01:46:44;7.90;82.62
68177;DHT22;56478;50.982;7.032;2023-02-24T01:49:33;7.68;82.43
68177;DHT22;56478;50.982;7.032;2023-02-24T01:52:06;7.76;82.40
68177;DHT22;56478;50.982;7.032;2023-02-24T01:57:15;7.79;82.65
68177;DHT22;56478;50.982;7.032;2023-02-24T01:59:43;7.83;82.63
68177;DHT22;56478;50.982;7.032;2023-02-24T02:02:10;7.80;82.60
68177;DHT22;56478;50.982;7.032;2023-02-24T02:05:22;7.80;82.13
68177;DHT22;56478;50.982;7.032;2023-02-24T02:07:30;7.72;82.42
68177;DHT22;56478;50.982;7.032;2023-02-24T02:09:57;7.82;82.06
68177;DHT22;56478;50.982;7.032;2023-02-24T02:12:25;7.82;81.98
68177;DHT22;56478;50.982;7.032;2023-02-24T02:14:53;7.82;82.29
68177;DHT22;56478;50.982;7.032;2023-02-24T02:20:14;7.63;81.62
68177;DHT22;56478;50.982;7.032;2023-02-24T02:22:54;7.66;82.05
68177;DHT22;56478;50.982;7.032;2023-02-24T02:25:57;7.65;81.92
68177;DHT22;56478;50.982;7.032;2023-02-24T02:37:22;7.54;82.42
68177;DHT22;56478;50.982;7.032;2023-02-24T02:40:06;7.52;82.53
68177;DHT22;56478;50.982;7.032;2023-02-24T02:45:29;7.58;82.47
68177;DHT22;56478;50.982;7.032;2023-02-24T02:48:04;7.62;81.35
68177;DHT22;56478;50.982;7.032;2023-02-24T02:50:42;7.44;81.99
68177;DHT22;56478;50.982;7.032;2023-02-24T02:55:47;7.52;81.33
68177;DHT22;56478;50.982;7.032;2023-02-24T02:58:21;7.44;81.55
68177;DHT22;56478;50.982;7.032;2023-02-24T03:00:53;7.42;81.60
68177;DHT22;56478;50.982;7.032;2023-02-24T03:03:31;7.36;81.28
68177;DHT22;56478;50.982;7.032;2023-02-24T03:06:25;7.44;80.97
68177;DHT22;56478;50.982;7.032;2023-02-24T03:08:54;7.34;80.49
68177;DHT22;56478;50.982;7.032;2023-02-24T03:11:25;7.31;80.60
68177;DHT22;56478;50.982;7.032;2023-02-24T03:13:54;7.15;80.60
68177;DHT22;56478;50.982;7.032;2023-02-24T03:16:22;7.23;80.70
68177;DHT22;56478;50.982;7.032;2023-02-24T03:18:56;7.25;80.98
68177;DHT22;56478;50.982;7.032;2023-02-24T03:21:33;7.25;79.89
68177;DHT22;56478;50.982;7.032;2023-02-24T03:24:01;7.21;79.75
68177;DHT22;56478;50.982;7.032;2023-02-24T03:26:51;7.18;80.56
68177;DHT22;56478;50.982;7.032;2023-02-24T03:32:17;7.14;80.33
68177;DHT22;56478;50.982;7.032;2023-02-24T03:34:53;7.13;80.39
68177;DHT22;56478;50.982;7.032;2023-02-24T03:37:19;7.14;80.52
68177;DHT22;56478;50.982;7.032;2023-02-24T03:39:55;7.10;80.44
68177;DHT22;56478;50.982;7.032;2023-02-24T03:42:21;7.08;80.80
68177;DHT22;56478;50.982;7.032;2023-02-24T03:44:48;7.10;81.18
68177;DHT22;56478;50.982;7.032;2023-02-24T03:47:16;7.10;80.56
68177;DHT22;56478;50.982;7.032;2023-02-24T03:49:42;7.14;80.75
68177;DHT22;56478;50.982;7.032;2023-02-24T03:55:25;7.18;81.48
68177;DHT22;56478;50.982;7.032;2023-02-24T03:58:12;7.15;81.46
68177;DHT22;56478;50.982;7.032;2023-02-24T04:03:52;7.14;82.16
68177;DHT22;56478;50.982;7.032;2023-02-24T04:12:06;7.11;80.60
68177;DHT22;56478;50.982;7.032;2023-02-24T04:14:56;7.10;81.00
68177;DHT22;56478;50.982;7.032;2023-02-24T04:17:37;7.07;81.17
68177;DHT22;56478;50.982;7.032;2023-02-24T04:20:06;7.08;81.37
68177;DHT22;56478;50.982;7.032;2023-02-24T04:22:50;7.10;81.18
68177;DHT22;56478;50.982;7.032;2023-02-24T04:25:22;7.13;81.16
68177;DHT22;56478;50.982;7.032;2023-02-24T04:27:53;7.13;79.77
68177;DHT22;56478;50.982;7.032;2023-02-24T04:30:20;7.11;80.07
68177;DHT22;56478;50.982;7.032;2023-02-24T04:32:46;7.11;80.02
68177;DHT22;56478;50.982;7.032;2023-02-24T04:35:14;7.08;80.41
68177;DHT22;56478;50.982;7.032;2023-02-24T04:37:41;6.95;79.03
68177;DHT22;56478;50.982;7.032;2023-02-24T04:40:14;6.93;78.99
68177;DHT22;56478;50.982;7.032;2023-02-24T04:42:44;6.82;79.36
68177;DHT22;56478;50.982;7.032;2023-02-24T04:45:17;6.88;79.44
68177;DHT22;56478;50.982;7.032;2023-02-24T04:47:44;6.89;79.12
68177;DHT22;56478;50.982;7.032;2023-02-24T04:50:23;6.86;78.85
68177;DHT22;56478;50.982;7.032;2023-02-24T04:55:21;6.82;78.45
68177;DHT22;56478;50.982;7.032;2023-02-24T04:57:53;6.86;78.03
68177;DHT22;56478;50.982;7.032;2023-02-24T05:00:19;6.88;78.99
68177;DHT22;56478;50.982;7.032;2023-02-24T05:02:46;6.83;77.54
68177;DHT22;56478;50.982;7.032;2023-02-24T05:05:13;6.82;77.76
68177;DHT22;56478;50.982;7.032;2023-02-24T05:07:39;6.75;77.79
68177;DHT22;56478;50.982;7.032;2023-02-24T05:10:05;6.75;78.00
68177;DHT22;56478;50.982;7.032;2023-02-24T05:12:31;6.73;77.98
68177;DHT22;56478;50.982;7.032;2023-02-24T05:14:56;6.72;78.72
68177;DHT22;56478;50.982;7.032;2023-02-24T05:17:26;6.64;77.99
68177;DHT22;56478;50.982;7.032;2023-02-24T05:19:51;6.59;77.90
68177;DHT22;56478;50.982;7.032;2023-02-24T05:22:36;6.51;78.62
68177;DHT22;56478;50.982;7.032;2023-02-24T05:25:01;6.51;77.88
68177;DHT22;56478;50.982;7.032;2023-02-24T05:27:29;6.51;79.29
68177;DHT22;56478;50.982;7.032;2023-02-24T05:29:54;6.51;77.55
68177;DHT22;56478;50.982;7.032;2023-02-24T05:32:20;6.52;78.22
68177;DHT22;56478;50.982;7.032;2023-02-24T05:34:46;6.52;78.04
68177;DHT22;56478;50.982;7.032;2023-02-24T05:37:12;6.55;78.93
68177;DHT22;56478;50.982;7.032;2023-02-24T05:39:41;6.48;78.70
68177;DHT22;56478;50.982;7.032;2023-02-24T05:42:06;6.41;80.37
68177;DHT22;56478;50.982;7.032;2023-02-24T05:44:33;6.34;78.09
68177;DHT22;56478;50.982;7.032;2023-02-24T05:47:00;6.27;80.12
68177;DHT22;56478;50.982;7.032;2023-02-24T05:49:31;6.18;80.93
68177;DHT22;56478;50.982;7.032;2023-02-24T05:51:59;6.11;81.35
68177;DHT22;56478;50.982;7.032;2023-02-24T05:54:33;6.05;81.69
68177;DHT22;56478;50.982;7.032;2023-02-24T05:57:02;6.06;81.55
68177;DHT22;56478;50.982;7.032;2023-02-24T05:59:28;6.13;81.91
68177;DHT22;56478;50.982;7.032;2023-02-24T06:01:58;6.02;81.10
68177;DHT22;56478;50.982;7.032;2023-02-24T06:04:25;6.02;81.47
68177;DHT22;56478;50.982;7.032;2023-02-24T06:07:16;6.06;80.52
68177;DHT22;56478;50.982;7.032;2023-02-24T06:09:43;5.99;81.58
68177;DHT22;56478;50.982;7.032;2023-02-24T06:12:10;5.98;79.79
68177;DHT22;56478;50.982;7.032;2023-02-24T06:14:35;5.99;81.58
68177;DHT22;56478;50.982;7.032;2023-02-24T06:17:01;6.02;80.93
68177;DHT22;56478;50.982;7.032;2023-02-24T06:19:27;5.96;81.73
68177;DHT22;56478;50.982;7.032;2023-02-24T06:21:57;5.91;80.47
68177;DHT22;56478;50.982;7.032;2023-02-24T06:24:27;5.95;81.48
68177;DHT22;56478;50.982;7.032;2023-02-24T06:26:54;5.95;81.95
68177;DHT22;56478;50.982;7.032;2023-02-24T06:29:28;5.95;82.58
68177;DHT22;56478;50.982;7.032;2023-02-24T06:31:55;5.96;81.85
68177;DHT22;56478;50.982;7.032;2023-02-24T06:34:24;5.95;81.48
68177;DHT22;56478;50.982;7.032;2023-02-24T06:36:52;5.99;82.59
68177;DHT22;56478;50.982;7.032;2023-02-24T06:39:18;6.02;82.32
68177;DHT22;56478;50.982;7.032;2023-02-24T06:41:44;6.09;82.56
68177;DHT22;56478;50.982;7.032;2023-02-24T06:44:13;6.10;82.77
68177;DHT22;56478;50.982;7.032;2023-02-24T06:46:38;6.17;82.78
68177;DHT22;56478;50.982;7.032;2023-02-24T06:49:05;6.18;82.51
68177;DHT22;56478;50.982;7.032;2023-02-24T06:51:31;6.31;81.83
68177;DHT22;56478;50.982;7.032;2023-02-24T06:53:58;6.38;81.94
68177;DHT22;56478;50.982;7.032;2023-02-24T06:56:24;6.42;81.94
68177;DHT22;56478;50.982;7.032;2023-02-24T06:58:52;6.42;82.06
68177;DHT22;56478;50.982;7.032;2023-02-24T07:01:22;6.34;81.01
68177;DHT22;56478;50.982;7.032;2023-02-24T07:03:51;6.34;81.01
68177;DHT22;56478;50.982;7.032;2023-02-24T07:06:25;6.37;80.65
68177;DHT22;56478;50.982;7.032;2023-02-24T07:08:55;6.48;81.56
68177;DHT22;56478;50.982;7.032;2023-02-24T07:11:22;6.54;80.33
68177;DHT22;56478;50.982;7.032;2023-02-24T07:13:48;6.42;79.71
68177;DHT22;56478;50.982;7.032;2023-02-24T07:16:19;6.54;79.24
68177;DHT22;56478;50.982;7.032;2023-02-24T07:18:44;6.64;78.36
68177;DHT22;56478;50.982;7.032;2023-02-24T07:21:15;6.68;79.28
68177;DHT22;56478;50.982;7.032;2023-02-24T07:23:43;6.61;78.36
68177;DHT22;56478;50.982;7.032;2023-02-24T07:26:14;6.65;78.48
68177;DHT22;56478;50.982;7.032;2023-02-24T07:28:42;6.64;77.65
68177;DHT22;56478;50.982;7.032;2023-02-24T07:31:10;6.59;77.05
68177;DHT22;56478;50.982;7.032;2023-02-24T07:33:37;6.64;77.77
68177;DHT22;56478;50.982;7.032;2023-02-24T07:36:07;6.67;77.51
68177;DHT22;56478;50.982;7.032;2023-02-24T07:38:39;6.76;78.36
68177;DHT22;56478;50.982;7.032;2023-02-24T07:41:07;6.80;78.97
68177;DHT22;56478;50.982;7.032;2023-02-24T07:43:35;6.78;77.21
68177;DHT22;56478;50.982;7.032;2023-02-24T07:46:14;6.78;77.39
68177;DHT22;56478;50.982;7.032;2023-02-24T07:48:41;6.86;77.88
68177;DHT22;56478;50.982;7.032;2023-02-24T07:51:08;6.82;78.09
68177;DHT22;56478;50.982;7.032;2023-02-24T07:53:34;6.86;76.74
68177;DHT22;56478;50.982;7.032;2023-02-24T07:56:14;6.88;77.02
68177;DHT22;56478;50.982;7.032;2023-02-24T07:58:50;6.83;77.20
68177;DHT22;56478;50.982;7.032;2023-02-24T08:01:18;6.95;76.22
68177;DHT22;56478;50.982;7.032;2023-02-24T08:03:53;6.79;75.41
68177;DHT22;56478;50.982;7.032;2023-02-24T08:06:24;6.75;74.78
68177;DHT22;56478;50.982;7.032;2023-02-24T08:09:09;6.80;75.39
68177;DHT22;56478;50.982;7.032;2023-02-24T08:11:44;6.76;74.81
68177;DHT22;56478;50.982;7.032;2023-02-24T08:14:14;6.86;73.77
68177;DHT22;56478;50.982;7.032;2023-02-24T08:16:44;6.96;73.04
68177;DHT22;56478;50.982;7.032;2023-02-24T08:19:16;6.96;73.34
68177;DHT22;56478;50.982;7.032;2023-02-24T08:21:48;7.03;75.60
68177;DHT22;56478;50.982;7.032;2023-02-24T08:24:22;6.99;73.70
68177;DHT22;56478;50.982;7.032;2023-02-24T08:26:50;7.04;73.43
68177;DHT22;56478;50.982;7.032;2023-02-24T08:29:36;7.01;72.74
68177;DHT22;56478;50.982;7.032;2023-02-24T08:32:38;7.04;71.94
68177;DHT22;56478;50.982;7.032;2023-02-24T08:35:10;7.11;71.93
68177;DHT22;56478;50.982;7.032;2023-02-24T08:37:50;7.18;72.69
68177;DHT22;56478;50.982;7.032;2023-02-24T08:40:20;7.27;71.37
68177;DHT22;56478;50.982;7.032;2023-02-24T08:43:04;7.18;70.79
68177;DHT22;56478;50.982;7.032;2023-02-24T08:48:12;7.08;70.97
68177;DHT22;56478;50.982;7.032;2023-02-24T08:50:54;7.25;71.79
68177;DHT22;56478;50.982;7.032;2023-02-24T08:53:21;7.31;70.59
68177;DHT22;56478;50.982;7.032;2023-02-24T08:55:48;7.30;71.29
68177;DHT22;56478;50.982;7.032;2023-02-24T08:58:20;7.34;72.00
68177;DHT22;56478;50.982;7.032;2023-02-24T09:00:55;7.32;71.81
68177;DHT22;56478;50.982;7.032;2023-02-24T09:03:23;7.35;71.11
68177;DHT22;56478;50.982;7.032;2023-02-24T09:06:02;7.13;71.14
68177;DHT22;56478;50.982;7.032;2023-02-24T09:08:29;7.20;72.07
68177;DHT22;56478;50.982;7.032;2023-02-24T09:11:00;7.23;73.05
68177;DHT22;56478;50.982;7.032;2023-02-24T09:13:26;7.21;73.11
68177;DHT22;56478;50.982;7.032;2023-02-24T09:16:02;7.25;73.35
68177;DHT22;56478;50.982;7.032;2023-02-24T09:18:28;7.24;73.87
68177;DHT22;56478;50.982;7.032;2023-02-24T09:21:12;7.36;73.70
68177;DHT22;56478;50.982;7.032;2023-02-24T09:23:41;7.45;73.93
68177;DHT22;56478;50.982;7.032;2023-02-24T09:26:13;7.45;73.53
68177;DHT22;56478;50.982;7.032;2023-02-24T09:28:39;7.54;72.84
68177;DHT22;56478;50.982;7.032;2023-02-24T09:31:19;7.58;71.19
68177;DHT22;56478;50.982;7.032;2023-02-24T09:33:48;7.55;71.18
68177;DHT22;56478;50.982;7.032;2023-02-24T09:36:19;7.63;71.51
68177;DHT22;56478;50.982;7.032;2023-02-24T09:38:55;7.73;69.14
68177;DHT22;56478;50.982;7.032;2023-02-24T09:41:45;7.69;70.82
68177;DHT22;56478;50.982;7.032;2023-02-24T09:44:40;7.58;70.85
68177;DHT22;56478;50.982;7.032;2023-02-24T09:47:30;7.48;69.99
68177;DHT22;56478;50.982;7.032;2023-02-24T09:52:54;7.55;68.98
68177;DHT22;56478;50.982;7.032;2023-02-24T09:55:41;7.56;68.48
68177;DHT22;56478;50.982;7.032;2023-02-24T10:06:32;7.70;70.00
68177;DHT22;56478;50.982;7.032;2023-02-24T10:11:57;7.69;69.63
68177;DHT22;56478;50.982;7.032;2023-02-24T10:14:30;7.70;68.28
68177;DHT22;56478;50.982;7.032;2023-02-24T10:17:14;7.70;68.66
68177;DHT22;56478;50.982;7.032;2023-02-24T10:19:59;7.59;69.73
68177;DHT22;56478;50.982;7.032;2023-02-24T10:30:32;7.73;66.88
68177;DHT22;56478;50.982;7.032;2023-02-24T10:33:16;7.83;67.67
68177;DHT22;56478;50.982;7.032;2023-02-24T10:35:42;7.90;67.39
68177;DHT22;56478;50.982;7.032;2023-02-24T10:38:08;7.70;67.80
68177;DHT22;56478;50.982;7.032;2023-02-24T10:40:53;7.56;67.41
68177;DHT22;56478;50.982;7.032;2023-02-24T10:43:25;7.76;67.72
68177;DHT22;56478;50.982;7.032;2023-02-24T10:45:56;7.94;66.41
68177;DHT22;56478;50.982;7.032;2023-02-24T10:48:32;7.90;66.00
68177;DHT22;56478;50.982;7.032;2023-02-24T10:51:10;7.85;65.68
68177;DHT22;56478;50.982;7.032;2023-02-24T10:53:35;7.85;67.02
68177;DHT22;56478;50.982;7.032;2023-02-24T10:56:12;7.62;66.86
68177;DHT22;56478;50.982;7.032;2023-02-24T11:01:59;7.68;67.22
68177;DHT22;56478;50.982;7.032;2023-02-24T11:04:36;7.66;66.63
68177;DHT22;56478;50.982;7.032;2023-02-24T11:07:29;7.42;67.00
68177;DHT22;56478;50.982;7.032;2023-02-24T11:10:13;7.40;67.17
68177;DHT22;56478;50.982;7.032;2023-02-24T11:12:44;7.45;66.42
68177;DHT22;56478;50.982;7.032;2023-02-24T11:15:34;7.48;67.11
68177;DHT22;56478;50.982;7.032;2023-02-24T11:18:24;7.35;66.80
68177;DHT22;56478;50.982;7.032;2023-02-24T11:20:57;7.28;67.04
68177;DHT22;56478;50.982;7.032;2023-02-24T11:23:34;7.31;66.97
68177;DHT22;56478;50.982;7.032;2023-02-24T11:26:02;7.34;67.04
68177;DHT22;56478;50.982;7.032;2023-02-24T11:29:13;7.36;68.84
68177;DHT22;56478;50.982;7.032;2023-02-24T11:34:24;7.41;68.00
68177;DHT22;56478;50.982;7.032;2023-02-24T11:37:27;7.34;69.09
68177;DHT22;56478;50.982;7.032;2023-02-24T11:42:50;6.96;70.14
68177;DHT22;56478;50.982;7.032;2023-02-24T11:45:38;7.01;72.43
68177;DHT22;56478;50.982;7.032;2023-02-24T11:53:34;6.88;72.35
68177;DHT22;56478;50.982;7.032;2023-02-24T11:56:09;6.89;73.18
68177;DHT22;56478;50.982;7.032;2023-02-24T11:58:43;6.89;72.36
68177;DHT22;56478;50.982;7.032;2023-02-24T12:01:19;6.97;72.98
68177;DHT22;56478;50.982;7.032;2023-02-24T12:03:55;7.04;72.82
68177;DHT22;56478;50.982;7.032;2023-02-24T12:06:30;7.15;73.73
68177;DHT22;56478;50.982;7.032;2023-02-24T12:09:05;7.01;72.49
68177;DHT22;56478;50.982;7.032;2023-02-24T12:11:41;7.07;71.89
68177;DHT22;56478;50.982;7.032;2023-02-24T12:16:53;6.99;72.93
68177;DHT22;56478;50.982;7.032;2023-02-24T12:19:38;7.03;74.53
68177;DHT22;56478;50.982;7.032;2023-02-24T12:22:14;6.92;72.69
68177;DHT22;56478;50.982;7.032;2023-02-24T12:24:45;6.95;73.41
68177;DHT22;56478;50.982;7.032;2023-02-24T12:29:52;6.80;74.38
68177;DHT22;56478;50.982;7.032;2023-02-24T12:46:21;6.92;74.82
68177;DHT22;56478;50.982;7.032;2023-02-24T12:54:28;6.69;76.22
68177;DHT22;56478;50.982;7.032;2023-02-24T12:57:07;6.62;78.20
68177;DHT22;56478;50.982;7.032;2023-02-24T12:59:38;6.52;77.78
68177;DHT22;56478;50.982;7.032;2023-02-24T13:02:05;6.56;78.41
68177;DHT22;56478;50.982;7.032;2023-02-24T13:04:48;6.59;79.14
68177;DHT22;56478;50.982;7.032;2023-02-24T13:15:26;6.41;80.06
68177;DHT22;56478;50.982;7.032;2023-02-24T13:17:55;6.44;79.27
68177;DHT22;56478;50.982;7.032;2023-02-24T13:22:53;6.44;80.11
68177;DHT22;56478;50.982;7.032;2023-02-24T13:25:21;6.42;80.18
68177;DHT22;56478;50.982;7.032;2023-02-24T13:28:03;6.17;80.40
68177;DHT22;56478;50.982;7.032;2023-02-24T13:30:36;6.11;81.18
68177;DHT22;56478;50.982;7.032;2023-02-24T13:35:45;6.23;81.44
68177;DHT22;56478;50.982;7.032;2023-02-24T13:38:39;6.30;81.07
68177;DHT22;56478;50.982;7.032;2023-02-24T13:44:01;6.34;81.46
68177;DHT22;56478;50.982;7.032;2023-02-24T13:46:46;6.20;81.94
68177;DHT22;56478;50.982;7.032;2023-02-24T13:52:14;6.35;81.17
68177;DHT22;56478;50.982;7.032;2023-02-24T13:55:11;6.35;81.21
68177;DHT22;56478;50.982;7.032;2023-02-24T14:00:27;6.35;81.84
68177;DHT22;56478;50.982;7.032;2023-02-24T14:02:56;6.44;81.12
68177;DHT22;56478;50.982;7.032;2023-02-24T14:05:33;6.58;81.72
68177;DHT22;56478;50.982;7.032;2023-02-24T14:08:00;6.52;81.17
68177;DHT22;56478;50.982;7.032;2023-02-24T14:10:28;6.49;81.93
68177;DHT22;56478;50.982;7.032;2023-02-24T14:13:04;6.46;81.80
68177;DHT22;56478;50.982;7.032;2023-02-24T14:15:31;6.52;81.56
68177;DHT22;56478;50.982;7.032;2023-02-24T14:18:03;6.61;80.15
68177;DHT22;56478;50.982;7.032;2023-02-24T14:20:33;6.44;82.79
68177;DHT22;56478;50.982;7.032;2023-02-24T14:23:00;6.44;82.16
68177;DHT22;56478;50.982;7.032;2023-02-24T14:25:29;6.31;82.34
68177;DHT22;56478;50.982;7.032;2023-02-24T14:27:55;6.35;83.04
68177;DHT22;56478;50.982;7.032;2023-02-24T14:30:25;6.42;82.80
68177;DHT22;56478;50.982;7.032;2023-02-24T14:32:51;6.45;83.03
68177;DHT22;56478;50.982;7.032;2023-02-24T14:35:31;6.41;82.68
68177;DHT22;56478;50.982;7.032;2023-02-24T14:37:57;6.33;83.45
68177;DHT22;56478;50.982;7.032;2023-02-24T14:40:23;6.41;83.37
68177;DHT22;56478;50.982;7.032;2023-02-24T14:42:51;6.44;82.73
68177;DHT22;56478;50.982;7.032;2023-02-24T14:45:26;6.41;82.96
68177;DHT22;56478;50.982;7.032;2023-02-24T14:47:54;6.46;83.12
68177;DHT22;56478;50.982;7.032;2023-02-24T14:50:27;6.54;83.36
68177;DHT22;56478;50.982;7.032;2023-02-24T14:53:01;6.54;84.08
68177;DHT22;56478;50.982;7.032;2023-02-24T14:55:32;6.51;82.56
68177;DHT22;56478;50.982;7.032;2023-02-24T14:58:13;6.52;82.82
68177;DHT22;56478;50.982;7.032;2023-02-24T15:00:48;6.51;83.16
68177;DHT22;56478;50.982;7.032;2023-02-24T15:03:35;6.59;82.92
68177;DHT22;56478;50.982;7.032;2023-02-24T15:06:07;6.44;83.31
68177;DHT22;56478;50.982;7.032;2023-02-24T15:08:45;6.49;83.18
68177;DHT22;56478;50.982;7.032;2023-02-24T15:13:54;6.46;83.39
68177;DHT22;56478;50.982;7.032;2023-02-24T15:16:27;6.42;83.63
68177;DHT22;56478;50.982;7.032;2023-02-24T15:18:56;6.42;83.11
68177;DHT22;56478;50.982;7.032;2023-02-24T15:21:33;6.59;83.19
68177;DHT22;56478;50.982;7.032;2023-02-24T15:24:02;6.52;82.22
68177;DHT22;56478;50.982;7.032;2023-02-24T15:26:31;6.41;82.85
68177;DHT22;56478;50.982;7.032;2023-02-24T15:29:01;6.33;83.26
68177;DHT22;56478;50.982;7.032;2023-02-24T15:31:27;6.44;82.88
68177;DHT22;56478;50.982;7.032;2023-02-24T15:33:59;6.48;83.91
68177;DHT22;56478;50.982;7.032;2023-02-24T15:36:29;6.45;82.66
68177;DHT22;56478;50.982;7.032;2023-02-24T15:39:05;6.51;83.52
68177;DHT22;56478;50.982;7.032;2023-02-24T15:41:42;6.45;84.46
68177;DHT22;56478;50.982;7.032;2023-02-24T15:44:50;6.33;84.32
68177;DHT22;56478;50.982;7.032;2023-02-24T15:47:27;6.40;84.37
68177;DHT22;56478;50.982;7.032;2023-02-24T15:49:53;6.51;84.23
68177;DHT22;56478;50.982;7.032;2023-02-24T15:52:23;6.42;83.18
68177;DHT22;56478;50.982;7.032;2023-02-24T15:54:49;6.48;83.20
68177;DHT22;56478;50.982;7.032;2023-02-24T15:57:16;6.58;84.04
68177;DHT22;56478;50.982;7.032;2023-02-24T15:59:43;6.58;83.75
68177;DHT22;56478;50.982;7.032;2023-02-24T16:02:13;6.54;84.03
68177;DHT22;56478;50.982;7.032;2023-02-24T16:04:40;6.44;84.26
68177;DHT22;56478;50.982;7.032;2023-02-24T16:07:09;6.35;84.28
68177;DHT22;56478;50.982;7.032;2023-02-24T16:09:38;6.44;84.32
68177;DHT22;56478;50.982;7.032;2023-02-24T16:12:07;6.54;84.18
68177;DHT22;56478;50.982;7.032;2023-02-24T16:14:34;6.37;83.95
68177;DHT22;56478;50.982;7.032;2023-02-24T16:17:05;6.49;83.58
68177;DHT22;56478;50.982;7.032;2023-02-24T16:19:31;6.52;83.51
68177;DHT22;56478;50.982;7.032;2023-02-24T16:21:57;6.51;83.53
68177;DHT22;56478;50.982;7.032;2023-02-24T16:24:23;6.51;82.89
68177;DHT22;56478;50.982;7.032;2023-02-24T16:26:48;6.44;83.47
68177;DHT22;56478;50.982;7.032;2023-02-24T16:29:14;6.40;83.98
68177;DHT22;56478;50.982;7.032;2023-02-24T16:31:40;6.40;83.94
68177;DHT22;56478;50.982;7.032;2023-02-24T16:34:06;6.35;84.08
68177;DHT22;56478;50.982;7.032;2023-02-24T16:36:32;6.41;84.16
68177;DHT22;56478;50.982;7.032;2023-02-24T16:38:58;6.41;84.23
68177;DHT22;56478;50.982;7.032;2023-02-24T16:41:25;6.44;84.60
68177;DHT22;56478;50.982;7.032;2023-02-24T16:43:51;6.40;84.55
68177;DHT22;56478;50.982;7.032;2023-02-24T16:46:20;6.46;84.59
68177;DHT22;56478;50.982;7.032;2023-02-24T16:48:51;6.41;84.34
68177;DHT22;56478;50.982;7.032;2023-02-24T16:51:17;6.51;84.41
68177;DHT22;56478;50.982;7.032;2023-02-24T16:53:43;6.64;83.61
68177;DHT22;56478;50.982;7.032;2023-02-24T16:56:09;6.56;84.21
68177;DHT22;56478;50.982;7.032;2023-02-24T16:58:35;6.64;84.19
68177;DHT22;56478;50.982;7.032;2023-02-24T17:01:00;6.48;84.84
68177;DHT22;56478;50.982;7.032;2023-02-24T17:03:45;6.46;84.96
68177;DHT22;56478;50.982;7.032;2023-02-24T17:06:11;6.52;84.83
68177;DHT22;56478;50.982;7.032;2023-02-24T17:08:37;6.55;84.51
68177;DHT22;56478;50.982;7.032;2023-02-24T17:11:03;6.48;84.89
68177;DHT22;56478;50.982;7.032;2023-02-24T17:13:29;6.45;85.45
68177;DHT22;56478;50.982;7.032;2023-02-24T17:15:55;6.49;85.50
68177;DHT22;56478;50.982;7.032;2023-02-24T17:18:22;6.58;85.63
68177;DHT22;56478;50.982;7.032;2023-02-24T17:20:48;6.61;85.57
68177;DHT22;56478;50.982;7.032;2023-02-24T17:23:14;6.54;86.01
68177;DHT22;56478;50.982;7.032;2023-02-24T17:25:39;6.45;85.69
68177;DHT22;56478;50.982;7.032;2023-02-24T17:28:06;6.49;86.62
68177;DHT22;56478;50.982;7.032;2023-02-24T17:30:33;6.49;86.88
68177;DHT22;56478;50.982;7.032;2023-02-24T17:32:59;6.58;87.17
68177;DHT22;56478;50.982;7.032;2023-02-24T17:35:26;6.58;86.84
68177;DHT22;56478;50.982;7.032;2023-02-24T17:37:52;6.62;87.31
68177;DHT22;56478;50.982;7.032;2023-02-24T17:40:18;6.64;87.31
68177;DHT22;56478;50.982;7.032;2023-02-24T17:42:44;6.64;87.21
68177;DHT22;56478;50.982;7.032;2023-02-24T17:45:10;6.71;86.84
68177;DHT22;56478;50.982;7.032;2023-02-24T17:47:37;6.68;86.86
68177;DHT22;56478;50.982;7.032;2023-02-24T17:50:03;6.69;86.96
68177;DHT22;56478;50.982;7.032;2023-02-24T17:52:30;6.65;86.93
68177;DHT22;56478;50.982;7.032;2023-02-24T17:54:56;6.71;87.30
68177;DHT22;56478;50.982;7.032;2023-02-24T17:57:22;6.73;87.22
68177;DHT22;56478;50.982;7.032;2023-02-24T17:59:48;6.71;86.87
68177;DHT22;56478;50.982;7.032;2023-02-24T18:02:16;6.71;86.25
68177;DHT22;56478;50.982;7.032;2023-02-24T18:04:42;6.52;86.88
68177;DHT22;56478;50.982;7.032;2023-02-24T18:07:09;6.54;87.08
68177;DHT22;56478;50.982;7.032;2023-02-24T18:09:35;6.56;86.95
68177;DHT22;56478;50.982;7.032;2023-02-24T18:12:02;6.52;86.98
68177;DHT22;56478;50.982;7.032;2023-02-24T18:14:28;6.51;87.37
68177;DHT22;56478;50.982;7.032;2023-02-24T18:16:53;6.51;87.56
68177;DHT22;56478;50.982;7.032;2023-02-24T18:19:19;6.51;87.63
68177;DHT22;56478;50.982;7.032;2023-02-24T18:21:45;6.54;87.18